sensor_id;sensor_type;location;lat;lon;timestamp;pressure;altitude;pressure_sealevel;temperature;humidity
78835;BME280;68187;42.682;23.352;2023-05-02T00:02:21;95475.47;;;13.01;59.80
78835;BME280;68187;42.682;23.352;2023-05-02T00:04:48;95480.25;;;12.99;59.81
78835;BME280;68187;42.682;23.352;2023-05-02T00:07:15;95457.50;;;12.87;59.71
78835;BME280;68187;42.682;23.352;2023-05-02T00:09:43;95478.41;;;12.94;59.93
78835;BME280;68187;42.682;23.352;2023-05-02T00:12:10;95469.97;;;12.87;60.19
78835;BME280;68187;42.682;23.352;2023-05-02T00:14:36;95476.59;;;12.79;60.37
78835;BME280;68187;42.682;23.352;2023-05-02T00:17:03;95477.63;;;12.83;60.56
78835;BME280;68187;42.682;23.352;2023-05-02T00:19:30;95476.34;;;12.81;60.55
78835;BME280;68187;42.682;23.352;2023-05-02T00:21:56;95488.81;;;12.80;60.44
78835;BME280;68187;42.682;23.352;2023-05-02T00:24:23;95475.53;;;12.80;60.39
78835;BME280;68187;42.682;23.352;2023-05-02T00:26:52;95481.66;;;12.81;60.91
78835;BME280;68187;42.682;23.352;2023-05-02T00:29:19;95481.38;;;12.82;60.56
78835;BME280;68187;42.682;23.352;2023-05-02T00:31:46;95484.31;;;12.81;60.73
78835;BME280;68187;42.682;23.352;2023-05-02T00:34:12;95488.00;;;12.80;60.80
78835;BME280;68187;42.682;23.352;2023-05-02T00:36:39;95492.50;;;12.79;60.60
78835;BME280;68187;42.682;23.352;2023-05-02T00:39:06;95499.13;;;12.77;60.48
78835;BME280;68187;42.682;23.352;2023-05-02T00:41:33;95493.31;;;12.75;60.75
78835;BME280;68187;42.682;23.352;2023-05-02T00:44:01;95502.88;;;12.71;60.56
78835;BME280;68187;42.682;23.352;2023-05-02T00:46:28;95506.31;;;12.71;60.74
78835;BME280;68187;42.682;23.352;2023-05-02T00:48:55;95513.19;;;12.72;60.96
78835;BME280;68187;42.682;23.352;2023-05-02T00:51:22;95514.25;;;12.76;60.90
78835;BME280;68187;42.682;23.352;2023-05-02T00:53:49;95508.97;;;12.76;60.66
78835;BME280;68187;42.682;23.352;2023-05-02T00:56:16;95506.31;;;12.76;60.88
78835;BME280;68187;42.682;23.352;2023-05-02T00:58:44;95510.28;;;12.74;60.59
78835;BME280;68187;42.682;23.352;2023-05-02T01:01:27;95509.72;;;12.77;61.52
78835;BME280;68187;42.682;23.352;2023-05-02T01:04:05;95501.00;;;12.71;61.06
78835;BME280;68187;42.682;23.352;2023-05-02T01:06:38;95502.88;;;12.71;61.29
78835;BME280;68187;42.682;23.352;2023-05-02T01:09:18;95505.75;;;12.74;61.34
78835;BME280;68187;42.682;23.352;2023-05-02T01:11:52;95512.13;;;12.73;61.29
78835;BME280;68187;42.682;23.352;2023-05-02T01:14:22;95503.38;;;12.68;61.39
78835;BME280;68187;42.682;23.352;2023-05-02T01:16:54;95509.75;;;12.72;61.64
78835;BME280;68187;42.682;23.352;2023-05-02T01:19:25;95513.47;;;12.66;62.14
78835;BME280;68187;42.682;23.352;2023-05-02T01:21:55;95506.06;;;12.63;62.43
78835;BME280;68187;42.682;23.352;2023-05-02T01:24:25;95503.41;;;12.63;62.16
78835;BME280;68187;42.682;23.352;2023-05-02T01:27:00;95494.91;;;12.61;62.43
78835;BME280;68187;42.682;23.352;2023-05-02T01:29:32;95498.88;;;12.63;62.95
78835;BME280;68187;42.682;23.352;2023-05-02T01:32:00;95496.53;;;12.62;62.96
78835;BME280;68187;42.682;23.352;2023-05-02T01:34:29;95494.38;;;12.64;62.74
78835;BME280;68187;42.682;23.352;2023-05-02T01:36:57;95495.19;;;12.64;62.63
78835;BME280;68187;42.682;23.352;2023-05-02T01:39:26;95489.63;;;12.61;62.73
78835;BME280;68187;42.682;23.352;2023-05-02T01:41:56;95494.38;;;12.64;62.62
78835;BME280;68187;42.682;23.352;2023-05-02T01:44:24;95495.19;;;12.54;63.00
78835;BME280;68187;42.682;23.352;2023-05-02T01:46:55;95508.97;;;12.56;63.17
78835;BME280;68187;42.682;23.352;2023-05-02T01:49:24;95497.06;;;12.49;63.13
78835;BME280;68187;42.682;23.352;2023-05-02T01:51:52;95514.28;;;12.56;63.22
78835;BME280;68187;42.682;23.352;2023-05-02T01:54:20;95502.91;;;12.51;63.39
78835;BME280;68187;42.682;23.352;2023-05-02T01:56:48;95509.25;;;12.50;63.39
78835;BME280;68187;42.682;23.352;2023-05-02T01:59:17;95505.81;;;12.49;63.57
78835;BME280;68187;42.682;23.352;2023-05-02T02:01:45;95498.69;;;12.45;63.60
78835;BME280;68187;42.682;23.352;2023-05-02T02:04:16;95495.47;;;12.48;63.79
78835;BME280;68187;42.682;23.352;2023-05-02T02:06:47;95491.78;;;12.49;63.19
78835;BME280;68187;42.682;23.352;2023-05-02T02:09:16;95495.75;;;12.46;63.58
78835;BME280;68187;42.682;23.352;2023-05-02T02:11:47;95489.66;;;12.46;63.62
78835;BME280;68187;42.682;23.352;2023-05-02T02:14:20;95498.13;;;12.43;63.87
78835;BME280;68187;42.682;23.352;2023-05-02T02:16:49;95493.63;;;12.38;64.31
78835;BME280;68187;42.682;23.352;2023-05-02T02:19:18;95497.34;;;12.37;64.33
78835;BME280;68187;42.682;23.352;2023-05-02T02:21:47;95498.69;;;12.35;64.17
78835;BME280;68187;42.682;23.352;2023-05-02T02:24:17;95503.44;;;12.33;64.16
78835;BME280;68187;42.682;23.352;2023-05-02T02:26:46;95497.63;;;12.31;64.58
78835;BME280;68187;42.682;23.352;2023-05-02T02:29:13;95500.28;;;12.31;64.37
78835;BME280;68187;42.682;23.352;2023-05-02T02:31:40;95501.31;;;12.25;64.54
78835;BME280;68187;42.682;23.352;2023-05-02T02:34:07;95497.63;;;12.26;64.33
78835;BME280;68187;42.682;23.352;2023-05-02T02:36:45;95497.09;;;12.18;64.18
78835;BME280;68187;42.682;23.352;2023-05-02T02:39:19;95507.16;;;12.22;64.79
78835;BME280;68187;42.682;23.352;2023-05-02T02:41:59;95507.69;;;12.24;64.55
78835;BME280;68187;42.682;23.352;2023-05-02T02:44:35;95502.38;;;12.24;64.89
78835;BME280;68187;42.682;23.352;2023-05-02T02:47:09;95511.66;;;12.21;64.83
78835;BME280;68187;42.682;23.352;2023-05-02T02:49:45;95515.63;;;12.18;65.08
78835;BME280;68187;42.682;23.352;2023-05-02T02:52:20;95498.41;;;12.16;65.43
78835;BME280;68187;42.682;23.352;2023-05-02T02:54:51;95505.81;;;12.09;65.67
78835;BME280;68187;42.682;23.352;2023-05-02T02:57:26;95497.88;;;11.89;66.06
78835;BME280;68187;42.682;23.352;2023-05-02T02:59:58;95514.28;;;12.01;65.45
78835;BME280;68187;42.682;23.352;2023-05-02T03:02:31;95512.16;;;11.98;65.90
78835;BME280;68187;42.682;23.352;2023-05-02T03:04:59;95521.44;;;12.00;65.58
78835;BME280;68187;42.682;23.352;2023-05-02T03:07:28;95523.56;;;11.98;65.49
78835;BME280;68187;42.682;23.352;2023-05-02T03:09:55;95527.00;;;11.99;65.23
78835;BME280;68187;42.682;23.352;2023-05-02T03:12:22;95538.09;;;11.96;65.01
78835;BME280;68187;42.682;23.352;2023-05-02T03:14:49;95537.59;;;11.99;65.25
78835;BME280;68187;42.682;23.352;2023-05-02T03:17:16;95541.00;;;11.99;65.20
78835;BME280;68187;42.682;23.352;2023-05-02T03:19:43;95532.00;;;11.95;65.72
78835;BME280;68187;42.682;23.352;2023-05-02T03:22:09;95545.78;;;12.02;65.51
78835;BME280;68187;42.682;23.352;2023-05-02T03:24:37;95546.59;;;12.03;65.21
78835;BME280;68187;42.682;23.352;2023-05-02T03:27:04;95551.06;;;11.97;65.53
78835;BME280;68187;42.682;23.352;2023-05-02T03:29:31;95535.19;;;11.82;66.09
78835;BME280;68187;42.682;23.352;2023-05-02T03:31:57;95547.84;;;11.75;66.46
78835;BME280;68187;42.682;23.352;2023-05-02T03:34:24;95510.22;;;11.53;66.71
78835;BME280;68187;42.682;23.352;2023-05-02T03:36:51;95545.50;;;11.79;66.58
78835;BME280;68187;42.682;23.352;2023-05-02T03:39:18;95534.63;;;11.70;66.67
78835;BME280;68187;42.682;23.352;2023-05-02T03:41:46;95543.66;;;11.84;66.96
78835;BME280;68187;42.682;23.352;2023-05-02T03:44:12;95543.66;;;11.84;66.59
78835;BME280;68187;42.682;23.352;2023-05-02T03:46:39;95553.44;;;11.84;66.37
78835;BME280;68187;42.682;23.352;2023-05-02T03:49:06;95545.00;;;11.92;65.62
78835;BME280;68187;42.682;23.352;2023-05-02T03:51:33;95546.03;;;11.91;65.57
78835;BME280;68187;42.682;23.352;2023-05-02T03:54:00;95555.59;;;11.92;65.68
78835;BME280;68187;42.682;23.352;2023-05-02T03:56:27;95551.59;;;11.89;65.94
78835;BME280;68187;42.682;23.352;2023-05-02T03:58:55;95553.19;;;11.95;65.76
78835;BME280;68187;42.682;23.352;2023-05-02T04:01:22;95521.44;;;11.85;65.06
78835;BME280;68187;42.682;23.352;2023-05-02T04:03:49;95548.72;;;12.01;65.00
78835;BME280;68187;42.682;23.352;2023-05-02T04:06:16;95545.53;;;11.99;65.10
78835;BME280;68187;42.682;23.352;2023-05-02T04:08:42;95548.19;;;11.99;65.29
78835;BME280;68187;42.682;23.352;2023-05-02T04:11:09;95546.88;;;12.01;65.32
78835;BME280;68187;42.682;23.352;2023-05-02T04:13:36;95550.31;;;12.07;65.31
78835;BME280;68187;42.682;23.352;2023-05-02T04:16:04;95554.56;;;12.08;64.91
78835;BME280;68187;42.682;23.352;2023-05-02T04:18:31;95549.00;;;12.14;64.80
78835;BME280;68187;42.682;23.352;2023-05-02T04:20:58;95555.59;;;12.22;64.36
78835;BME280;68187;42.682;23.352;2023-05-02T04:23:24;95544.75;;;12.24;64.05
78835;BME280;68187;42.682;23.352;2023-05-02T04:25:51;95553.75;;;12.28;64.17
78835;BME280;68187;42.682;23.352;2023-05-02T04:28:19;95540.25;;;12.29;63.86
78835;BME280;68187;42.682;23.352;2023-05-02T04:30:46;95548.47;;;12.38;63.59
78835;BME280;68187;42.682;23.352;2023-05-02T04:33:14;95546.34;;;12.45;63.02
78835;BME280;68187;42.682;23.352;2023-05-02T04:35:41;95550.59;;;12.46;62.70
78835;BME280;68187;42.682;23.352;2023-05-02T04:38:08;95558.00;;;12.49;62.35
78835;BME280;68187;42.682;23.352;2023-05-02T04:40:34;95539.47;;;12.44;62.18
78835;BME280;68187;42.682;23.352;2023-05-02T04:43:01;95548.72;;;12.56;61.90
78835;BME280;68187;42.682;23.352;2023-05-02T04:45:28;95550.59;;;12.56;61.84
78835;BME280;68187;42.682;23.352;2023-05-02T04:47:55;95555.63;;;12.62;61.38
78835;BME280;68187;42.682;23.352;2023-05-02T04:50:23;95562.75;;;12.62;61.53
78835;BME280;68187;42.682;23.352;2023-05-02T04:52:52;95551.13;;;12.63;61.59
78835;BME280;68187;42.682;23.352;2023-05-02T04:55:19;95554.00;;;12.66;61.30
78835;BME280;68187;42.682;23.352;2023-05-02T04:57:45;95555.63;;;12.67;61.15
78835;BME280;68187;42.682;23.352;2023-05-02T05:00:13;95557.72;;;12.80;61.90
78835;BME280;68187;42.682;23.352;2023-05-02T05:02:39;95566.97;;;12.93;60.56
78835;BME280;68187;42.682;23.352;2023-05-02T05:05:07;95568.56;;;12.99;60.63
78835;BME280;68187;42.682;23.352;2023-05-02T05:07:35;95563.53;;;13.08;59.27
78835;BME280;68187;42.682;23.352;2023-05-02T05:10:02;95566.69;;;13.15;59.25
78835;BME280;68187;42.682;23.352;2023-05-02T05:12:29;95557.16;;;12.99;58.55
78835;BME280;68187;42.682;23.352;2023-05-02T05:14:55;95560.88;;;13.08;59.27
78835;BME280;68187;42.682;23.352;2023-05-02T05:17:22;95569.06;;;13.01;58.08
78835;BME280;68187;42.682;23.352;2023-05-02T05:19:49;95565.88;;;13.04;58.61
78835;BME280;68187;42.682;23.352;2023-05-02T05:22:16;95571.19;;;13.09;57.78
78835;BME280;68187;42.682;23.352;2023-05-02T05:24:50;95564.56;;;13.12;57.21
78835;BME280;68187;42.682;23.352;2023-05-02T05:27:16;95560.88;;;13.13;57.26
78835;BME280;68187;42.682;23.352;2023-05-02T05:29:43;95561.13;;;13.06;57.66
78835;BME280;68187;42.682;23.352;2023-05-02T05:32:10;95573.56;;;13.21;56.94
78835;BME280;68187;42.682;23.352;2023-05-02T05:34:36;95578.56;;;13.27;56.86
78835;BME280;68187;42.682;23.352;2023-05-02T05:37:03;95574.31;;;13.36;56.70
78835;BME280;68187;42.682;23.352;2023-05-02T05:39:30;95571.13;;;13.39;55.39
78835;BME280;68187;42.682;23.352;2023-05-02T05:41:58;95581.22;;;13.37;55.48
78835;BME280;68187;42.682;23.352;2023-05-02T05:44:25;95569.56;;;13.28;56.28
78835;BME280;68187;42.682;23.352;2023-05-02T05:46:52;95579.84;;;13.45;55.56
78835;BME280;68187;42.682;23.352;2023-05-02T05:49:19;95580.34;;;13.52;55.32
78835;BME280;68187;42.682;23.352;2023-05-02T05:51:46;95581.88;;;13.63;56.05
78835;BME280;68187;42.682;23.352;2023-05-02T05:54:12;95579.72;;;13.70;54.52
78835;BME280;68187;42.682;23.352;2023-05-02T05:56:39;95580.81;;;13.69;54.75
78835;BME280;68187;42.682;23.352;2023-05-02T05:59:07;95578.97;;;13.65;54.86
78835;BME280;68187;42.682;23.352;2023-05-02T06:01:34;95584.31;;;13.59;55.06
78835;BME280;68187;42.682;23.352;2023-05-02T06:04:01;95587.19;;;13.68;54.88
78835;BME280;68187;42.682;23.352;2023-05-02T06:06:29;95600.09;;;13.90;53.69
78835;BME280;68187;42.682;23.352;2023-05-02T06:08:56;95595.34;;;13.82;53.40
78835;BME280;68187;42.682;23.352;2023-05-02T06:11:22;95600.91;;;13.85;53.76
78835;BME280;68187;42.682;23.352;2023-05-02T06:13:50;95587.66;;;13.80;53.71
78835;BME280;68187;42.682;23.352;2023-05-02T06:16:19;95592.63;;;13.97;54.06
78835;BME280;68187;42.682;23.352;2023-05-02T06:18:46;95582.75;;;14.07;53.60
78835;BME280;68187;42.682;23.352;2023-05-02T06:21:13;95591.13;;;14.24;53.83
78835;BME280;68187;42.682;23.352;2023-05-02T06:23:40;95584.47;;;14.32;52.86
78835;BME280;68187;42.682;23.352;2023-05-02T06:26:06;95586.00;;;14.38;53.37
78835;BME280;68187;42.682;23.352;2023-05-02T06:28:34;95570.28;;;14.47;51.25
78835;BME280;68187;42.682;23.352;2023-05-02T06:31:02;95573.59;;;14.62;49.69
78835;BME280;68187;42.682;23.352;2023-05-02T06:33:32;95573.59;;;14.62;49.43
78835;BME280;68187;42.682;23.352;2023-05-02T06:35:59;95561.34;;;14.66;49.44
78835;BME280;68187;42.682;23.352;2023-05-02T06:38:26;95560.72;;;14.74;51.81
78835;BME280;68187;42.682;23.352;2023-05-02T06:40:53;95548.47;;;14.78;50.20
78835;BME280;68187;42.682;23.352;2023-05-02T06:43:20;95576.34;;;15.10;50.04
78835;BME280;68187;42.682;23.352;2023-05-02T06:45:46;95565.03;;;15.23;50.13
78835;BME280;68187;42.682;23.352;2023-05-02T06:48:13;95568.97;;;15.30;49.31
78835;BME280;68187;42.682;23.352;2023-05-02T06:50:59;95571.22;;;15.42;49.16
78835;BME280;68187;42.682;23.352;2023-05-02T06:53:25;95547.84;;;15.39;47.05
78835;BME280;68187;42.682;23.352;2023-05-02T06:55:52;95567.63;;;15.56;47.14
78835;BME280;68187;42.682;23.352;2023-05-02T06:58:19;95568.06;;;15.40;48.13
78835;BME280;68187;42.682;23.352;2023-05-02T07:00:45;95560.34;;;15.38;48.36
78835;BME280;68187;42.682;23.352;2023-05-02T07:03:14;95556.41;;;15.59;48.53
78835;BME280;68187;42.682;23.352;2023-05-02T07:05:41;95559.81;;;15.84;46.01
78835;BME280;68187;42.682;23.352;2023-05-02T07:08:09;95563.72;;;15.91;45.72
78835;BME280;68187;42.682;23.352;2023-05-02T07:10:35;95548.38;;;16.02;44.94
78835;BME280;68187;42.682;23.352;2023-05-02T07:13:02;95558.03;;;16.16;44.75
78835;BME280;68187;42.682;23.352;2023-05-02T07:15:29;95558.41;;;16.28;43.64
78835;BME280;68187;42.682;23.352;2023-05-02T07:17:55;95559.47;;;16.27;44.52
78835;BME280;68187;42.682;23.352;2023-05-02T07:20:22;95560.03;;;16.24;44.56
78835;BME280;68187;42.682;23.352;2023-05-02T07:22:49;95573.97;;;16.21;43.06
78835;BME280;68187;42.682;23.352;2023-05-02T07:25:17;95532.38;;;16.02;42.79
78835;BME280;68187;42.682;23.352;2023-05-02T07:27:44;95568.03;;;16.24;43.71
78835;BME280;68187;42.682;23.352;2023-05-02T07:30:12;95558.97;;;16.44;43.22
78835;BME280;68187;42.682;23.352;2023-05-02T07:32:38;95559.03;;;16.58;43.07
78835;BME280;68187;42.682;23.352;2023-05-02T07:35:05;95556.91;;;16.73;43.35
78835;BME280;68187;42.682;23.352;2023-05-02T07:37:33;95560.38;;;16.74;42.47
78835;BME280;68187;42.682;23.352;2023-05-02T07:40:00;95553.66;;;16.76;43.62
78835;BME280;68187;42.682;23.352;2023-05-02T07:42:29;95557.63;;;16.92;41.63
78835;BME280;68187;42.682;23.352;2023-05-02T07:44:56;95557.41;;;16.75;40.99
78835;BME280;68187;42.682;23.352;2023-05-02T07:47:23;95565.91;;;16.77;41.30
78835;BME280;68187;42.682;23.352;2023-05-02T07:49:51;95563.69;;;16.98;42.07
78835;BME280;68187;42.682;23.352;2023-05-02T07:52:18;95565.09;;;17.09;40.54
78835;BME280;68187;42.682;23.352;2023-05-02T07:54:44;95571.91;;;17.15;40.21
78835;BME280;68187;42.682;23.352;2023-05-02T07:57:11;95557.47;;;17.16;40.30
78835;BME280;68187;42.682;23.352;2023-05-02T07:59:39;95563.41;;;17.27;40.51
78835;BME280;68187;42.682;23.352;2023-05-02T08:02:06;95556.88;;;17.05;39.96
78835;BME280;68187;42.682;23.352;2023-05-02T08:04:33;95561.91;;;17.07;40.50
78835;BME280;68187;42.682;23.352;2023-05-02T08:06:59;95563.31;;;17.18;41.42
78835;BME280;68187;42.682;23.352;2023-05-02T08:09:26;95556.50;;;17.39;41.30
78835;BME280;68187;42.682;23.352;2023-05-02T08:11:53;95544.75;;;17.54;39.41
78835;BME280;68187;42.682;23.352;2023-05-02T08:14:19;95559.59;;;17.73;39.42
78835;BME280;68187;42.682;23.352;2023-05-02T08:16:47;95552.16;;;17.84;38.62
78835;BME280;68187;42.682;23.352;2023-05-02T08:19:14;95561.44;;;18.00;39.16
78835;BME280;68187;42.682;23.352;2023-05-02T08:21:41;95561.28;;;18.19;38.37
78835;BME280;68187;42.682;23.352;2023-05-02T08:24:08;95558.75;;;18.36;38.60
78835;BME280;68187;42.682;23.352;2023-05-02T08:26:34;95559.28;;;18.24;36.56
78835;BME280;68187;42.682;23.352;2023-05-02T08:29:01;95553.97;;;18.11;38.53
78835;BME280;68187;42.682;23.352;2023-05-02T08:31:29;95554.50;;;18.35;37.95
78835;BME280;68187;42.682;23.352;2023-05-02T08:33:57;95546.84;;;18.56;37.98
78835;BME280;68187;42.682;23.352;2023-05-02T08:36:23;95557.22;;;18.79;36.20
78835;BME280;68187;42.682;23.352;2023-05-02T08:38:53;95548.09;;;18.80;37.09
78835;BME280;68187;42.682;23.352;2023-05-02T08:41:20;95554.19;;;18.94;35.66
78835;BME280;68187;42.682;23.352;2023-05-02T08:43:47;95555.56;;;18.70;35.58
78835;BME280;68187;42.682;23.352;2023-05-02T08:46:15;95558.59;;;18.77;37.16
78835;BME280;68187;42.682;23.352;2023-05-02T08:48:44;95553.66;;;18.92;36.26
78835;BME280;68187;42.682;23.352;2023-05-02T08:51:15;95549.50;;;19.08;35.42
78835;BME280;68187;42.682;23.352;2023-05-02T08:53:42;95517.66;;;18.98;35.25
78835;BME280;68187;42.682;23.352;2023-05-02T08:56:10;95543.91;;;19.18;35.25
78835;BME280;68187;42.682;23.352;2023-05-02T08:58:39;95538.41;;;19.23;34.90
78835;BME280;68187;42.682;23.352;2023-05-02T09:01:09;95517.81;;;19.33;35.77
78835;BME280;68187;42.682;23.352;2023-05-02T09:03:37;95541.09;;;19.63;34.07
78835;BME280;68187;42.682;23.352;2023-05-02T09:06:05;95533.03;;;19.63;34.40
78835;BME280;68187;42.682;23.352;2023-05-02T09:08:34;95532.44;;;19.66;35.48
78835;BME280;68187;42.682;23.352;2023-05-02T09:11:01;95521.09;;;19.69;33.30
78835;BME280;68187;42.682;23.352;2023-05-02T09:13:34;95519.50;;;19.68;33.08
78835;BME280;68187;42.682;23.352;2023-05-02T09:16:02;95525.31;;;19.61;33.03
78835;BME280;68187;42.682;23.352;2023-05-02T09:18:31;95523.25;;;19.58;33.00
78835;BME280;68187;42.682;23.352;2023-05-02T09:20:59;95521.25;;;19.72;33.75
78835;BME280;68187;42.682;23.352;2023-05-02T09:23:35;95525.88;;;19.98;31.93
78835;BME280;68187;42.682;23.352;2023-05-02T09:26:10;95523.84;;;20.12;32.43
78835;BME280;68187;42.682;23.352;2023-05-02T09:28:38;95532.69;;;20.21;32.27
78835;BME280;68187;42.682;23.352;2023-05-02T09:31:07;95524.34;;;20.22;32.13
78835;BME280;68187;42.682;23.352;2023-05-02T09:33:34;95514.88;;;20.33;32.19
78835;BME280;68187;42.682;23.352;2023-05-02T09:36:01;95511.72;;;20.31;31.15
78835;BME280;68187;42.682;23.352;2023-05-02T09:38:28;95518.66;;;20.41;31.83
78835;BME280;68187;42.682;23.352;2023-05-02T09:40:56;95528.78;;;20.44;31.03
78835;BME280;68187;42.682;23.352;2023-05-02T09:43:23;95518.50;;;20.54;32.99
78835;BME280;68187;42.682;23.352;2023-05-02T09:45:56;95510.13;;;20.65;31.20
78835;BME280;68187;42.682;23.352;2023-05-02T09:48:24;95502.84;;;20.74;30.77
78835;BME280;68187;42.682;23.352;2023-05-02T09:50:51;95511.00;;;20.86;29.93
78835;BME280;68187;42.682;23.352;2023-05-02T09:53:19;95500.25;;;20.86;30.31
78835;BME280;68187;42.682;23.352;2023-05-02T09:55:45;95498.19;;;21.00;29.51
78835;BME280;68187;42.682;23.352;2023-05-02T09:58:23;95503.22;;;21.18;30.03
78835;BME280;68187;42.682;23.352;2023-05-02T10:00:49;95504.97;;;21.14;30.57
78835;BME280;68187;42.682;23.352;2023-05-02T10:03:17;95495.19;;;21.10;29.16
78835;BME280;68187;42.682;23.352;2023-05-02T10:05:45;95497.53;;;21.11;29.48
78835;BME280;68187;42.682;23.352;2023-05-02T10:08:12;95491.03;;;21.21;28.92
78835;BME280;68187;42.682;23.352;2023-05-02T10:10:41;95494.00;;;21.28;31.21
78835;BME280;68187;42.682;23.352;2023-05-02T10:13:12;95485.22;;;21.48;29.45
78835;BME280;68187;42.682;23.352;2023-05-02T10:15:42;95469.44;;;21.38;29.79
78835;BME280;68187;42.682;23.352;2023-05-02T10:18:12;95477.88;;;21.57;28.93
78835;BME280;68187;42.682;23.352;2023-05-02T10:20:43;95484.53;;;21.60;28.59
78835;BME280;68187;42.682;23.352;2023-05-02T10:23:14;95482.88;;;21.38;28.33
78835;BME280;68187;42.682;23.352;2023-05-02T10:25:41;95479.84;;;21.48;29.26
78835;BME280;68187;42.682;23.352;2023-05-02T10:28:09;95483.41;;;21.81;30.63
78835;BME280;68187;42.682;23.352;2023-05-02T10:30:38;95480.44;;;22.03;28.54
78835;BME280;68187;42.682;23.352;2023-05-02T10:33:07;95467.59;;;22.09;28.22
78835;BME280;68187;42.682;23.352;2023-05-02T10:35:35;95468.69;;;22.29;27.00
78835;BME280;68187;42.682;23.352;2023-05-02T10:38:03;95474.94;;;22.21;27.22
78835;BME280;68187;42.682;23.352;2023-05-02T10:40:31;95469.91;;;21.98;27.20
78835;BME280;68187;42.682;23.352;2023-05-02T10:42:58;95457.47;;;21.85;27.75
78835;BME280;68187;42.682;23.352;2023-05-02T10:45:32;95458.28;;;22.07;28.39
78835;BME280;68187;42.682;23.352;2023-05-02T10:48:16;95458.72;;;22.09;26.94
78835;BME280;68187;42.682;23.352;2023-05-02T10:50:45;95443.66;;;21.95;28.17
78835;BME280;68187;42.682;23.352;2023-05-02T10:53:29;95441.56;;;22.01;27.48
78835;BME280;68187;42.682;23.352;2023-05-02T10:56:10;95458.78;;;22.21;27.21
78835;BME280;68187;42.682;23.352;2023-05-02T10:58:37;95453.34;;;22.29;28.05
78835;BME280;68187;42.682;23.352;2023-05-02T11:01:31;95445.72;;;22.31;27.26
78835;BME280;68187;42.682;23.352;2023-05-02T11:04:03;95443.78;;;22.52;28.19
78835;BME280;68187;42.682;23.352;2023-05-02T11:06:31;95440.88;;;22.57;27.04
78835;BME280;68187;42.682;23.352;2023-05-02T11:09:30;95443.97;;;22.68;28.36
78835;BME280;68187;42.682;23.352;2023-05-02T11:11:58;95443.16;;;22.35;26.60
78835;BME280;68187;42.682;23.352;2023-05-02T11:14:43;95425.91;;;21.74;27.66
78835;BME280;68187;42.682;23.352;2023-05-02T11:17:11;95445.22;;;21.67;28.16
78835;BME280;68187;42.682;23.352;2023-05-02T11:25:36;95442.75;;;21.62;29.09
78835;BME280;68187;42.682;23.352;2023-05-02T11:28:05;95429.38;;;21.74;28.68
78835;BME280;68187;42.682;23.352;2023-05-02T11:30:38;95437.25;;;21.79;28.37
78835;BME280;68187;42.682;23.352;2023-05-02T11:33:13;95433.31;;;21.77;28.15
78835;BME280;68187;42.682;23.352;2023-05-02T11:35:42;95420.88;;;21.93;28.04
78835;BME280;68187;42.682;23.352;2023-05-02T11:38:12;95417.38;;;22.13;28.53
78835;BME280;68187;42.682;23.352;2023-05-02T11:40:39;95422.19;;;22.40;27.79
78835;BME280;68187;42.682;23.352;2023-05-02T11:43:13;95416.66;;;22.57;28.12
78835;BME280;68187;42.682;23.352;2023-05-02T11:45:40;95413.44;;;22.64;26.81
78835;BME280;68187;42.682;23.352;2023-05-02T11:48:10;95403.22;;;22.69;27.73
78835;BME280;68187;42.682;23.352;2023-05-02T11:50:41;95410.31;;;22.74;26.84
78835;BME280;68187;42.682;23.352;2023-05-02T11:53:12;95401.13;;;22.75;26.32
78835;BME280;68187;42.682;23.352;2023-05-02T11:55:46;95403.50;;;22.89;27.39
78835;BME280;68187;42.682;23.352;2023-05-02T11:58:14;95376.44;;;22.85;28.30
78835;BME280;68187;42.682;23.352;2023-05-02T12:00:42;95402.94;;;23.07;28.38
78835;BME280;68187;42.682;23.352;2023-05-02T12:03:19;95395.31;;;23.09;27.26
78835;BME280;68187;42.682;23.352;2023-05-02T12:05:46;95379.25;;;22.89;26.64
78835;BME280;68187;42.682;23.352;2023-05-02T12:08:19;95392.78;;;22.68;27.43
78835;BME280;68187;42.682;23.352;2023-05-02T12:10:46;95380.28;;;22.51;27.26
78835;BME280;68187;42.682;23.352;2023-05-02T12:13:13;95381.94;;;22.64;26.45
78835;BME280;68187;42.682;23.352;2023-05-02T12:15:40;95378.91;;;22.90;27.12
78835;BME280;68187;42.682;23.352;2023-05-02T12:18:07;95370.94;;;23.18;26.23
78835;BME280;68187;42.682;23.352;2023-05-02T12:20:34;95375.88;;;23.16;27.71
78835;BME280;68187;42.682;23.352;2023-05-02T12:23:03;95378.69;;;23.07;25.67
78835;BME280;68187;42.682;23.352;2023-05-02T12:25:36;95371.94;;;23.13;25.64
78835;BME280;68187;42.682;23.352;2023-05-02T12:28:03;95368.38;;;23.21;26.48
78835;BME280;68187;42.682;23.352;2023-05-02T12:30:31;95359.72;;;23.04;25.34
78835;BME280;68187;42.682;23.352;2023-05-02T12:32:59;95361.41;;;22.96;25.65
78835;BME280;68187;42.682;23.352;2023-05-02T12:35:27;95362.97;;;22.97;25.43
78835;BME280;68187;42.682;23.352;2023-05-02T12:38:07;95352.53;;;23.08;26.88
78835;BME280;68187;42.682;23.352;2023-05-02T12:40:36;95350.03;;;23.15;25.74
78835;BME280;68187;42.682;23.352;2023-05-02T12:43:03;95336.69;;;23.06;25.47
78835;BME280;68187;42.682;23.352;2023-05-02T12:45:32;95338.81;;;23.13;24.50
78835;BME280;68187;42.682;23.352;2023-05-02T12:47:59;95343.78;;;23.35;25.54
78835;BME280;68187;42.682;23.352;2023-05-02T12:50:36;95328.38;;;23.23;23.94
78835;BME280;68187;42.682;23.352;2023-05-02T12:53:03;95320.19;;;23.44;24.32
78835;BME280;68187;42.682;23.352;2023-05-02T12:55:31;95332.69;;;23.64;24.76
78835;BME280;68187;42.682;23.352;2023-05-02T12:58:03;95335.94;;;23.70;23.59
78835;BME280;68187;42.682;23.352;2023-05-02T13:00:32;95335.22;;;23.85;23.64
78835;BME280;68187;42.682;23.352;2023-05-02T13:02:59;95345.91;;;23.81;23.06
78835;BME280;68187;42.682;23.352;2023-05-02T13:05:26;95334.41;;;23.45;24.26